Time;durP1;ratioP1;P1;durP2;ratioP2;P2;SDS_P1;SDS_P2;PMS_P1;PMS_P2;Temp;Humidity;BMP_temperature;BMP_pressure;BME280_temperature;BME280_humidity;BME280_pressure;Samples;Min_cycle;Max_cycle;Signal;HPM_P1;HPM_P2
2024/01/04 00:00:06;;;;;;;;;;;;;;;17.80;65.67;100010.28;7392447;19;1916;-37
2024/01/04 00:02:37;;;;;;;;;;;;;;;17.80;65.70;100011.13;7389432;19;1476;-37
2024/01/04 00:05:06;;;;;;;;;;;;;;;17.73;65.80;100007.38;7392359;19;1834;-37
2024/01/04 00:07:34;;;;;;;;;;;;;;;17.73;65.72;100011.88;7391510;19;1864;-37
2024/01/04 00:10:02;;;;;;;;;;;;;;;17.65;65.84;100016.13;7391817;19;1750;-37
2024/01/04 00:12:31;;;;;;;;;;;;;;;17.81;65.72;100018.19;7391247;19;1204;-37
2024/01/04 00:15:02;;;;;;;;;;;;;;;18.09;64.99;100024.44;7391708;19;1402;-37
2024/01/04 00:17:31;;;;;;;;;;;;;;;18.07;64.82;100028.25;7391981;19;1698;-37
2024/01/04 00:20:02;;;;;;;;;;;;;;;17.93;64.95;100028.75;7390119;19;1390;-37
2024/01/04 00:22:31;;;;;;;;;;;;;;;17.83;65.18;100034.94;7391918;19;1565;-37
2024/01/04 00:24:59;;;;;;;;;;;;;;;17.81;65.14;100031.56;7392690;19;957;-37
2024/01/04 00:27:27;;;;;;;;;;;;;;;17.70;65.24;100031.72;7391369;19;1869;-38
2024/01/04 00:29:56;;;;;;;;;;;;;;;17.61;65.65;100033.44;7391877;19;1707;-37
2024/01/04 00:32:24;;;;;;;;;;;;;;;17.55;65.61;100035.81;7390731;19;1798;-37
2024/01/04 00:34:52;;;;;;;;;;;;;;;17.74;65.52;100025.09;7389929;19;1654;-41
2024/01/04 00:37:23;;;;;;;;;;;;;;;18.02;64.62;100033.19;7390898;19;1766;-38
2024/01/04 00:39:52;;;;;;;;;;;;;;;18.11;64.46;100039.50;7390135;19;1615;-37
2024/01/04 00:42:20;;;;;;;;;;;;;;;17.92;65.01;100046.59;7376632;19;1572;-37
2024/01/04 00:44:49;;;;;;;;;;;;;;;17.82;65.02;100049.25;7390911;19;1153;-37
2024/01/04 00:47:18;;;;;;;;;;;;;;;17.74;65.19;100041.13;7390466;19;1641;-38
2024/01/04 00:49:46;;;;;;;;;;;;;;;17.65;65.05;100026.81;7395849;19;1854;-37
2024/01/04 00:52:14;;;;;;;;;;;;;;;17.67;65.21;100042.72;7399588;19;1135;-38
2024/01/04 00:54:45;;;;;;;;;;;;;;;17.53;65.42;100027.09;7399278;19;1829;-37
2024/01/04 00:57:14;;;;;;;;;;;;;;;17.72;65.32;100036.91;7397718;19;1544;-37
2024/01/04 00:59:42;;;;;;;;;;;;;;;17.95;64.54;100021.41;7395322;19;1913;-37
2024/01/04 01:02:10;;;;;;;;;;;;;;;18.04;64.25;100025.84;7394965;19;1808;-37
2024/01/04 01:04:39;;;;;;;;;;;;;;;18.01;64.39;100044.91;7397821;19;1473;-37
2024/01/04 01:07:07;;;;;;;;;;;;;;;17.83;64.69;100032.28;7397804;19;1644;-37
2024/01/04 01:09:35;;;;;;;;;;;;;;;17.71;65.05;100036.09;7393297;19;1853;-37
2024/01/04 01:12:07;;;;;;;;;;;;;;;17.67;65.22;100035.53;7396009;19;1263;-37
2024/01/04 01:14:35;;;;;;;;;;;;;;;17.65;65.26;100044.69;7398114;19;1480;-37
2024/01/04 01:17:03;;;;;;;;;;;;;;;17.52;65.45;100041.47;7397973;19;1552;-37
2024/01/04 01:19:32;;;;;;;;;;;;;;;17.59;65.18;100039.91;7397354;19;1584;-38
2024/01/04 01:22:00;;;;;;;;;;;;;;;17.87;64.89;100039.03;7397932;19;1556;-37
2024/01/04 01:24:29;;;;;;;;;;;;;;;17.93;64.37;100034.09;7398104;19;1312;-37
2024/01/04 01:26:57;;;;;;;;;;;;;;;17.79;64.78;100038.88;7398001;19;1664;-37
2024/01/04 01:29:28;;;;;;;;;;;;;;;17.69;64.80;100049.59;7393838;19;1857;-37
2024/01/04 01:31:56;;;;;;;;;;;;;;;17.62;64.86;100047.63;7397259;19;1576;-37
2024/01/04 01:34:25;;;;;;;;;;;;;;;17.63;65.05;100033.28;7397804;19;1457;-37
2024/01/04 01:36:53;;;;;;;;;;;;;;;17.48;65.14;100046.25;7396323;19;1497;-37
2024/01/04 01:39:21;;;;;;;;;;;;;;;17.46;65.55;100037.53;7397173;19;1044;-37
2024/01/04 01:41:51;;;;;;;;;;;;;;;17.72;64.82;100037.75;7380489;19;1601;-37
2024/01/04 01:44:20;;;;;;;;;;;;;;;17.93;64.22;100034.09;7396568;19;1402;-37
2024/01/04 01:46:51;;;;;;;;;;;;;;;17.81;64.28;100039.56;7395070;19;1326;-37
2024/01/04 01:49:19;;;;;;;;;;;;;;;17.73;64.54;100044.81;7394392;19;1859;-37
2024/01/04 01:51:47;;;;;;;;;;;;;;;17.66;64.76;100043.69;7393298;19;2603;-37
2024/01/04 01:54:16;;;;;;;;;;;;;;;17.65;64.64;100037.50;7395854;19;971;-37
2024/01/04 01:56:44;;;;;;;;;;;;;;;17.55;64.82;100036.69;7394969;19;1485;-38
2024/01/04 01:59:13;;;;;;;;;;;;;;;17.49;65.03;100032.75;7394799;19;1432;-37
2024/01/04 02:01:42;;;;;;;;;;;;;;;17.73;64.66;100027.94;7395491;19;1793;-38
2024/01/04 02:04:13;;;;;;;;;;;;;;;17.92;64.15;100027.88;7394825;19;1506;-37
2024/01/04 02:06:41;;;;;;;;;;;;;;;17.80;63.97;100003.09;7395452;19;1307;-38
2024/01/04 02:09:07;;;;;;;;;;;;;;;17.71;64.40;100041.44;7394653;19;1846;-37
2024/01/04 02:11:35;;;;;;;;;;;;;;;17.66;64.50;100024.97;7395460;19;1651;-37
2024/01/04 02:14:03;;;;;;;;;;;;;;;17.62;64.63;100028.91;7395749;19;1239;-37
2024/01/04 02:16:32;;;;;;;;;;;;;;;17.55;64.62;100031.34;7394493;19;1469;-38
2024/01/04 02:19:00;;;;;;;;;;;;;;;17.51;64.90;100024.59;7396922;19;1425;-38
2024/01/04 02:21:31;;;;;;;;;;;;;;;17.73;64.37;100006.53;7397258;19;1791;-38
2024/01/04 02:24:02;;;;;;;;;;;;;;;17.92;63.77;100021.69;7397036;19;1826;-38
2024/01/04 02:26:30;;;;;;;;;;;;;;;17.82;63.92;100011.81;7395472;19;1595;-37
2024/01/04 02:28:59;;;;;;;;;;;;;;;17.73;64.10;100003.88;7395228;19;1865;-37
2024/01/04 02:31:27;;;;;;;;;;;;;;;17.62;64.35;100015.56;7395850;19;1557;-37
2024/01/04 02:33:55;;;;;;;;;;;;;;;17.63;64.33;100006.56;7396504;19;1186;-40
2024/01/04 02:36:24;;;;;;;;;;;;;;;17.52;64.41;100009.41;7395287;19;1533;-38
2024/01/04 02:38:52;;;;;;;;;;;;;;;17.46;64.86;100006.28;7396661;19;1127;-38
2024/01/04 02:41:23;;;;;;;;;;;;;;;17.66;64.32;100007.09;7382525;19;1821;-37
2024/01/04 02:43:51;;;;;;;;;;;;;;;17.92;63.55;99990.44;7395513;19;1913;-38
2024/01/04 02:46:19;;;;;;;;;;;;;;;17.89;63.71;100007.63;7395971;19;1565;-37
2024/01/04 02:48:48;;;;;;;;;;;;;;;17.74;63.97;100009.03;7394884;19;1845;-38
2024/01/04 02:51:16;;;;;;;;;;;;;;;17.63;64.22;99983.34;7395635;19;1588;-38
2024/01/04 02:53:45;;;;;;;;;;;;;;;17.60;64.12;99996.13;7394698;19;1409;-37
2024/01/04 02:56:13;;;;;;;;;;;;;;;17.52;64.28;100001.38;7393591;19;1759;-38
2024/01/04 02:58:45;;;;;;;;;;;;;;;17.44;64.63;100000.25;7392762;19;1188;-37
2024/01/04 03:01:13;;;;;;;;;;;;;;;17.71;64.22;100001.31;7394838;19;1679;-37
2024/01/04 03:03:41;;;;;;;;;;;;;;;17.98;63.32;100005.88;7395470;19;1504;-37
2024/01/04 03:06:10;;;;;;;;;;;;;;;17.85;63.61;100002.72;7391270;19;2411;-37
2024/01/04 03:08:38;;;;;;;;;;;;;;;17.72;63.84;100000.31;7393822;19;1834;-37
2024/01/04 03:11:06;;;;;;;;;;;;;;;17.64;63.89;99989.50;7392994;19;1036;-38
2024/01/04 03:13:35;;;;;;;;;;;;;;;17.61;64.11;100005.88;7394754;19;1129;-37
2024/01/04 03:16:06;;;;;;;;;;;;;;;17.35;64.30;99986.91;7392975;19;1838;-38
2024/01/04 03:18:37;;;;;;;;;;;;;;;17.45;64.57;100004.63;7394354;19;1826;-37
2024/01/04 03:21:05;;;;;;;;;;;;;;;17.70;63.91;99996.94;7393743;19;1842;-37
2024/01/04 03:23:33;;;;;;;;;;;;;;;17.91;63.33;100001.28;7393584;19;1430;-37
2024/01/04 03:26:02;;;;;;;;;;;;;;;17.80;63.41;99997.75;7393876;19;1563;-37
2024/01/04 03:28:30;;;;;;;;;;;;;;;17.63;63.86;99993.19;7393790;19;1861;-37
2024/01/04 03:30:58;;;;;;;;;;;;;;;17.59;63.83;99997.16;7394476;19;1125;-37
2024/01/04 03:33:29;;;;;;;;;;;;;;;17.57;64.03;100007.16;7394386;19;1381;-37
2024/01/04 03:35:58;;;;;;;;;;;;;;;17.36;64.43;100018.00;7393620;19;1595;-37
2024/01/04 03:38:26;;;;;;;;;;;;;;;17.47;64.42;99997.31;7393273;19;1818;-38
2024/01/04 03:40:54;;;;;;;;;;;;;;;17.75;63.68;99996.53;7392854;19;1485;-37
2024/01/04 03:43:23;;;;;;;;;;;;;;;17.86;63.02;99985.66;7379777;19;1707;-37
2024/01/04 03:45:51;;;;;;;;;;;;;;;17.76;63.52;99991.00;7392117;19;1196;-35
2024/01/04 03:48:20;;;;;;;;;;;;;;;17.75;63.51;99991.19;7392534;19;1734;-35
2024/01/04 03:50:51;;;;;;;;;;;;;;;17.63;63.71;99990.53;7388969;19;1847;-35
2024/01/04 03:53:19;;;;;;;;;;;;;;;17.60;63.68;99996.13;7392752;19;1223;-35
2024/01/04 03:55:48;;;;;;;;;;;;;;;17.40;64.09;100001.53;7392833;19;1570;-35
2024/01/04 03:58:16;;;;;;;;;;;;;;;17.52;63.95;100004.03;7392444;19;1557;-35
2024/01/04 04:00:44;;;;;;;;;;;;;;;18.02;62.73;99998.41;7391286;19;1572;-35
2024/01/04 04:03:13;;;;;;;;;;;;;;;18.57;61.37;99995.72;7393108;19;1663;-35
2024/01/04 04:05:44;;;;;;;;;;;;;;;18.45;61.54;99991.56;7392458;19;1622;-36
2024/01/04 04:08:15;;;;;;;;;;;;;;;18.48;61.49;99991.25;7393046;19;1794;-35
2024/01/04 04:10:44;;;;;;;;;;;;;;;18.61;61.38;99986.38;7389788;19;1850;-36
2024/01/04 04:13:12;;;;;;;;;;;;;;;18.74;60.82;99977.13;7391917;19;1932;-35
2024/01/04 04:15:40;;;;;;;;;;;;;;;18.80;60.64;99984.56;7391426;19;1799;-35
2024/01/04 04:18:09;;;;;;;;;;;;;;;18.81;60.66;99983.59;7392385;19;1718;-36
2024/01/04 04:20:37;;;;;;;;;;;;;;;18.79;60.59;99993.59;7391315;19;1813;-35
2024/01/04 04:23:06;;;;;;;;;;;;;;;18.83;60.71;99989.63;7390521;19;1512;-35
2024/01/04 04:25:38;;;;;;;;;;;;;;;18.82;60.69;99988.81;7391184;19;1063;-35
2024/01/04 04:28:06;;;;;;;;;;;;;;;18.87;60.61;99991.84;7391901;19;2015;-35
2024/01/04 04:30:35;;;;;;;;;;;;;;;18.88;60.47;99979.31;7388963;19;1929;-35
2024/01/04 04:33:03;;;;;;;;;;;;;;;18.88;60.66;99987.34;7391047;19;1759;-35
2024/01/04 04:35:31;;;;;;;;;;;;;;;18.81;60.53;99992.47;7391323;19;1632;-36
2024/01/04 04:38:00;;;;;;;;;;;;;;;18.85;60.40;99982.28;7391295;19;1841;-36
2024/01/04 04:40:28;;;;;;;;;;;;;;;18.82;60.56;99963.81;7390832;19;1539;-36
2024/01/04 04:42:59;;;;;;;;;;;;;;;18.85;60.55;99976.94;7374863;19;1564;-35
2024/01/04 04:45:27;;;;;;;;;;;;;;;18.94;60.42;99970.66;7390172;19;1414;-35
2024/01/04 04:47:55;;;;;;;;;;;;;;;19.02;60.20;99989.47;7392501;19;1319;-35
2024/01/04 04:50:24;;;;;;;;;;;;;;;19.00;60.21;99972.72;7389749;19;1835;-35
2024/01/04 04:52:52;;;;;;;;;;;;;;;19.14;60.00;99983.84;7390188;19;1501;-35
2024/01/04 04:55:21;;;;;;;;;;;;;;;19.13;60.04;99985.69;7390179;19;1643;-36
2024/01/04 04:57:49;;;;;;;;;;;;;;;19.12;60.28;99980.50;7390976;19;1196;-35
2024/01/04 05:00:20;;;;;;;;;;;;;;;19.05;60.46;99973.06;7390662;19;1577;-36
2024/01/04 05:02:49;;;;;;;;;;;;;;;19.03;60.38;99974.22;7390075;19;1429;-36
2024/01/04 05:05:17;;;;;;;;;;;;;;;19.04;60.27;99975.94;7389244;19;1889;-35
2024/01/04 05:07:45;;;;;;;;;;;;;;;19.01;60.51;99976.22;7389255;19;1818;-35
2024/01/04 05:10:14;;;;;;;;;;;;;;;18.88;61.02;99979.31;7387794;19;1853;-35
2024/01/04 05:12:42;;;;;;;;;;;;;;;18.79;61.90;99998.94;7389870;19;1497;-35
2024/01/04 05:15:11;;;;;;;;;;;;;;;18.69;62.26;99978.41;7389693;19;1308;-35
2024/01/04 05:17:41;;;;;;;;;;;;;;;18.67;62.35;99983.09;7390671;19;1498;-36
2024/01/04 05:20:12;;;;;;;;;;;;;;;18.64;62.37;99975.38;7389422;19;1324;-36
2024/01/04 05:22:41;;;;;;;;;;;;;;;18.64;62.46;99986.09;7389783;19;1457;-36
2024/01/04 05:25:10;;;;;;;;;;;;;;;18.67;62.48;99987.59;7391081;19;1289;-36
2024/01/04 05:27:38;;;;;;;;;;;;;;;18.72;62.26;100000.53;7389723;19;1845;-36
2024/01/04 05:30:07;;;;;;;;;;;;;;;18.75;61.99;99985.00;7389696;19;1857;-36
2024/01/04 05:32:35;;;;;;;;;;;;;;;18.67;62.14;99982.25;7389599;19;1774;-36
2024/01/04 05:35:07;;;;;;;;;;;;;;;18.66;61.85;99976.06;7397027;19;1772;-36
2024/01/04 05:37:36;;;;;;;;;;;;;;;18.74;61.92;99985.16;7396386;19;1703;-36
2024/01/04 05:40:04;;;;;;;;;;;;;;;18.74;61.65;99980.66;7396257;19;1405;-36
2024/01/04 05:42:33;;;;;;;;;;;;;;;18.70;61.68;99973.91;7380144;19;1762;-36
2024/01/04 05:45:01;;;;;;;;;;;;;;;18.80;61.38;99989.94;7397318;19;1525;-36
2024/01/04 05:47:29;;;;;;;;;;;;;;;18.78;61.45;99989.22;7394043;19;1719;-36
2024/01/04 05:49:58;;;;;;;;;;;;;;;18.68;61.22;99983.91;7396249;19;1843;-36
2024/01/04 05:52:29;;;;;;;;;;;;;;;18.78;61.26;99981.16;7396260;19;1819;-36
2024/01/04 05:54:57;;;;;;;;;;;;;;;18.76;61.55;99976.00;7397866;19;953;-36
2024/01/04 05:57:28;;;;;;;;;;;;;;;18.78;61.46;99975.81;7396782;19;1852;-36
2024/01/04 05:59:57;;;;;;;;;;;;;;;18.94;61.46;99973.34;7396160;19;1493;-36
2024/01/04 06:02:27;;;;;;;;;;;;;;;19.08;61.16;99977.31;7395675;19;1544;-36
2024/01/04 06:04:55;;;;;;;;;;;;;;;19.03;61.11;99975.06;7397515;19;1537;-36
2024/01/04 06:07:24;;;;;;;;;;;;;;;19.12;61.04;99983.16;7393833;19;2118;-36
2024/01/04 06:09:55;;;;;;;;;;;;;;;19.24;60.56;99990.00;7395038;19;1857;-36
2024/01/04 06:12:23;;;;;;;;;;;;;;;19.26;60.58;99988.00;7394889;19;1343;-36
2024/01/04 06:14:52;;;;;;;;;;;;;;;19.22;60.22;99983.94;7395610;19;1747;-36
2024/01/04 06:17:20;;;;;;;;;;;;;;;19.37;59.86;99993.09;7396187;19;1677;-36
2024/01/04 06:19:48;;;;;;;;;;;;;;;19.33;59.66;99994.41;7396791;19;1806;-36
2024/01/04 06:22:16;;;;;;;;;;;;;;;19.34;59.84;99977.31;7396535;19;1548;-36
2024/01/04 06:24:46;;;;;;;;;;;;;;;19.31;59.87;99996.38;7396533;19;1512;-36
2024/01/04 06:27:17;;;;;;;;;;;;;;;19.33;59.64;99990.88;7393961;19;2487;-36
2024/01/04 06:29:45;;;;;;;;;;;;;;;19.24;59.94;99984.63;7394637;19;1877;-36
2024/01/04 06:32:14;;;;;;;;;;;;;;;19.18;59.69;99987.91;7395031;19;1470;-36
2024/01/04 06:34:42;;;;;;;;;;;;;;;19.16;59.60;99989.91;7385180;19;1500;-36
2024/01/04 06:37:10;;;;;;;;;;;;;;;19.07;59.51;99997.88;7391862;19;1445;-36
2024/01/04 06:39:39;;;;;;;;;;;;;;;19.00;60.10;100001.31;7391359;19;1601;-36
2024/01/04 06:42:07;;;;;;;;;;;;;;;18.97;60.09;100007.00;7383423;19;1482;-36
2024/01/04 06:44:38;;;;;;;;;;;;;;;18.93;60.36;99998.44;7393820;19;1648;-36
2024/01/04 06:47:07;;;;;;;;;;;;;;;18.98;60.32;99996.13;7393967;19;1381;-36
2024/01/04 06:49:35;;;;;;;;;;;;;;;18.98;60.07;100008.69;7393789;19;1845;-36
2024/01/04 06:52:04;;;;;;;;;;;;;;;18.97;60.14;100002.47;7392771;19;1505;-36
2024/01/04 06:54:32;;;;;;;;;;;;;;;18.95;60.31;99996.44;7393403;19;1493;-36
2024/01/04 06:57:00;;;;;;;;;;;;;;;19.00;60.44;100001.31;7393337;19;1905;-36
2024/01/04 06:59:29;;;;;;;;;;;;;;;18.99;60.26;99989.78;7392385;19;1659;-36
2024/01/04 07:02:00;;;;;;;;;;;;;;;19.00;60.27;99991.47;7392834;19;1738;-36
2024/01/04 07:04:28;;;;;;;;;;;;;;;19.04;60.24;99984.81;7392552;19;1679;-36
2024/01/04 07:06:56;;;;;;;;;;;;;;;19.05;60.30;99981.13;7392490;19;1489;-36
2024/01/04 07:09:25;;;;;;;;;;;;;;;19.10;60.35;99982.47;7391122;19;1410;-36
2024/01/04 07:11:54;;;;;;;;;;;;;;;19.12;60.19;99970.63;7390691;19;1851;-36
2024/01/04 07:14:22;;;;;;;;;;;;;;;19.15;60.37;99983.69;7391521;19;1218;-36
2024/01/04 07:16:51;;;;;;;;;;;;;;;19.18;60.22;99982.53;7392143;19;1520;-36
2024/01/04 07:19:22;;;;;;;;;;;;;;;19.13;60.26;99974.16;7392563;19;1809;-36
2024/01/04 07:21:50;;;;;;;;;;;;;;;19.18;60.20;99977.19;7391116;19;1572;-36
2024/01/04 07:24:19;;;;;;;;;;;;;;;19.21;60.12;99988.44;7391848;19;1197;-36
2024/01/04 07:26:47;;;;;;;;;;;;;;;19.16;60.35;99980.03;7392669;19;1620;-36
2024/01/04 07:29:15;;;;;;;;;;;;;;;19.18;60.18;99985.22;7389583;19;1698;-36
2024/01/04 07:31:44;;;;;;;;;;;;;;;18.99;60.58;99980.91;7391464;19;1862;-36
2024/01/04 07:34:12;;;;;;;;;;;;;;;18.66;61.06;99994.81;7389402;19;1853;-36
2024/01/04 07:36:43;;;;;;;;;;;;;;;18.48;61.83;99986.75;7392669;19;1246;-36
2024/01/04 07:39:12;;;;;;;;;;;;;;;18.29;62.39;99989.56;7393691;19;1747;-36
2024/01/04 07:41:41;;;;;;;;;;;;;;;18.16;63.01;99981.84;7394352;19;1101;-36
2024/01/04 07:44:10;;;;;;;;;;;;;;;18.11;62.85;99980.66;7376847;19;1073;-36
2024/01/04 07:46:38;;;;;;;;;;;;;;;18.01;63.32;99976.16;7389223;19;1838;-36
2024/01/04 07:49:07;;;;;;;;;;;;;;;17.96;63.34;99973.09;7390221;19;1332;-36
2024/01/04 07:51:35;;;;;;;;;;;;;;;17.83;63.49;100026.94;7389784;19;1845;-37
2024/01/04 07:54:06;;;;;;;;;;;;;;;17.77;63.48;99998.06;7391545;19;1727;-36
2024/01/04 07:56:34;;;;;;;;;;;;;;;17.72;63.80;99981.59;7390394;19;1580;-36
2024/01/04 07:59:03;;;;;;;;;;;;;;;17.67;63.97;99979.38;7391305;19;1766;-36
2024/01/04 08:01:31;;;;;;;;;;;;;;;17.67;63.60;99982.06;7391673;19;1489;-36
2024/01/04 08:04:00;;;;;;;;;;;;;;;17.63;63.89;99979.81;7390452;19;1464;-36
2024/01/04 08:06:28;;;;;;;;;;;;;;;17.58;63.86;99971.38;7391991;19;1224;-36
2024/01/04 08:08:56;;;;;;;;;;;;;;;17.55;63.89;99966.31;7393130;19;1102;-36
2024/01/04 08:11:25;;;;;;;;;;;;;;;17.50;63.95;99956.06;7388437;19;1867;-36
2024/01/04 08:13:53;;;;;;;;;;;;;;;17.46;64.01;99957.34;7385927;19;1183;-36
2024/01/04 08:16:22;;;;;;;;;;;;;;;17.45;64.22;99945.00;7389118;19;1450;-36
2024/01/04 08:18:51;;;;;;;;;;;;;;;17.42;64.19;99940.75;7390237;19;1251;-36
2024/01/04 08:21:19;;;;;;;;;;;;;;;17.45;64.10;99945.81;7388927;19;1573;-36
2024/01/04 08:23:47;;;;;;;;;;;;;;;17.45;64.09;99937.81;7387595;19;1208;-36
2024/01/04 08:26:15;;;;;;;;;;;;;;;17.53;63.80;99917.50;7380097;19;1515;-36
2024/01/04 08:28:46;;;;;;;;;;;;;;;17.96;62.98;99949.00;7389278;19;1442;-36
2024/01/04 08:31:15;;;;;;;;;;;;;;;18.62;61.09;99918.44;7388208;19;1849;-37
2024/01/04 08:33:43;;;;;;;;;;;;;;;18.61;61.31;99915.91;7390425;19;992;-36
2024/01/04 08:36:11;;;;;;;;;;;;;;;18.52;61.31;99909.63;7385951;19;1916;-36
2024/01/04 08:38:40;;;;;;;;;;;;;;;18.46;61.77;99923.63;7387190;19;1357;-36
2024/01/04 08:44:06;;;;;;;;;;;;;;;18.83;60.91;99914.63;7373179;19;1242;-36
2024/01/04 08:46:37;;;;;;;;;;;;;;;18.80;61.03;99906.88;7387188;19;1264;-36
2024/01/04 08:49:07;;;;;;;;;;;;;;;18.55;61.51;99889.75;7389499;19;1207;-36
2024/01/04 08:51:36;;;;;;;;;;;;;;;18.38;62.16;99886.06;7386549;19;1856;-36
2024/01/04 08:54:04;;;;;;;;;;;;;;;18.45;61.81;99860.38;7387970;19;1609;-36
2024/01/04 08:56:33;;;;;;;;;;;;;;;18.69;61.28;99884.69;7384441;19;1497;-37
2024/01/04 08:59:02;;;;;;;;;;;;;;;18.80;60.90;99877.44;7387598;19;1351;-36
2024/01/04 09:01:33;;;;;;;;;;;;;;;18.63;61.14;99871.91;7390214;19;1548;-36
2024/01/04 09:04:01;;;;;;;;;;;;;;;18.42;61.75;99853.53;7388793;19;1528;-36
2024/01/04 09:06:31;;;;;;;;;;;;;;;18.43;61.71;99843.66;7389592;19;1052;-36
2024/01/04 09:08:59;;;;;;;;;;;;;;;18.63;61.33;99837.09;7393444;19;1477;-36
2024/01/04 09:11:33;;;;;;;;;;;;;;;18.79;60.97;99828.38;7395144;19;1913;-36
2024/01/04 09:14:05;;;;;;;;;;;;;;;18.69;61.10;99839.16;7396059;19;1492;-36
2024/01/04 09:16:37;;;;;;;;;;;;;;;18.46;61.42;99837.97;7392923;19;1466;-36
2024/01/04 09:19:05;;;;;;;;;;;;;;;18.47;61.49;99827.09;7393477;19;1382;-36
2024/01/04 09:21:34;;;;;;;;;;;;;;;18.73;61.10;99828.97;7396522;19;1538;-36
2024/01/04 09:24:02;;;;;;;;;;;;;;;18.92;60.66;99825.31;7394516;19;1387;-37
2024/01/04 09:26:30;;;;;;;;;;;;;;;18.85;60.77;99811.69;7394896;19;1466;-36
2024/01/04 09:28:59;;;;;;;;;;;;;;;18.71;61.28;99819.44;7395965;19;1564;-36
2024/01/04 09:31:27;;;;;;;;;;;;;;;18.58;61.35;99812.66;7392459;19;1856;-36
2024/01/04 09:33:58;;;;;;;;;;;;;;;18.88;60.60;99821.25;7393555;19;1208;-36
2024/01/04 09:36:26;;;;;;;;;;;;;;;19.19;59.99;99807.34;7392334;19;1069;-36
2024/01/04 09:38:55;;;;;;;;;;;;;;;19.23;60.11;99811.38;7392804;19;1387;-37
2024/01/04 09:41:25;;;;;;;;;;;;;;;19.04;60.54;99793.72;7394720;19;1808;-36
2024/01/04 09:43:56;;;;;;;;;;;;;;;18.94;60.75;99803.69;7379825;19;1098;-36
2024/01/04 09:46:26;;;;;;;;;;;;;;;18.89;60.93;99796.13;7393446;19;1484;-36
2024/01/04 09:48:59;;;;;;;;;;;;;;;19.21;60.32;99789.28;7393428;19;1822;-36
2024/01/04 09:51:28;;;;;;;;;;;;;;;19.21;60.06;99781.22;7392051;19;1846;-36
2024/01/04 09:53:56;;;;;;;;;;;;;;;18.98;60.95;99763.03;7392865;19;1538;-36
2024/01/04 09:56:25;;;;;;;;;;;;;;;18.76;61.42;99779.59;7391280;19;1269;-36
2024/01/04 09:58:53;;;;;;;;;;;;;;;18.66;61.59;99788.59;7394761;19;1763;-36
2024/01/04 10:01:23;;;;;;;;;;;;;;;18.99;60.73;99774.59;7395155;19;1738;-36
2024/01/04 10:03:52;;;;;;;;;;;;;;;19.24;60.01;99772.88;7391456;19;1600;-36
2024/01/04 10:06:24;;;;;;;;;;;;;;;19.03;60.60;99771.44;7394555;19;1603;-36
2024/01/04 10:08:54;;;;;;;;;;;;;;;18.93;60.84;99784.09;7392810;19;1561;-36
2024/01/04 10:11:26;;;;;;;;;;;;;;;18.79;61.23;99776.63;7392210;19;1843;-36
2024/01/04 10:13:54;;;;;;;;;;;;;;;18.86;61.12;99756.25;7388983;19;1568;-36
2024/01/04 10:16:23;;;;;;;;;;;;;;;19.25;60.01;99751.25;7390660;19;1681;-36
2024/01/04 10:18:52;;;;;;;;;;;;;;;19.28;60.04;99758.97;7387577;19;1367;-36
2024/01/04 10:21:23;;;;;;;;;;;;;;;19.05;60.69;99748.00;7393043;19;1390;-36
2024/01/04 10:23:59;;;;;;;;;;;;;;;18.87;61.13;99744.56;7394954;19;1502;-36
2024/01/04 10:26:27;;;;;;;;;;;;;;;18.64;61.61;99742.41;7390875;19;1748;-36
2024/01/04 10:28:59;;;;;;;;;;;;;;;18.74;61.37;99722.69;7394890;19;1609;-37
2024/01/04 10:31:27;;;;;;;;;;;;;;;18.95;60.78;99741.09;7388625;19;1854;-36
2024/01/04 10:33:59;;;;;;;;;;;;;;;18.87;60.99;99736.53;7393004;19;1263;-36
2024/01/04 10:36:32;;;;;;;;;;;;;;;18.68;61.48;99725.03;7392081;19;1209;-36
2024/01/04 10:39:01;;;;;;;;;;;;;;;18.58;61.94;99721.63;7392498;19;1098;-36
2024/01/04 10:41:30;;;;;;;;;;;;;;;18.90;61.14;99701.41;7393941;19;1224;-36
2024/01/04 10:44:05;;;;;;;;;;;;;;;19.19;60.33;99702.81;7375069;19;1500;-36
2024/01/04 10:46:34;;;;;;;;;;;;;;;19.12;60.32;99704.47;7389922;19;1505;-36
2024/01/04 10:49:02;;;;;;;;;;;;;;;18.89;60.96;99707.72;7389042;19;1628;-36
2024/01/04 10:51:35;;;;;;;;;;;;;;;18.71;61.37;99706.94;7388813;19;1878;-36
2024/01/04 10:54:04;;;;;;;;;;;;;;;18.67;61.65;99701.91;7388873;19;1525;-36
2024/01/04 10:56:32;;;;;;;;;;;;;;;18.96;60.75;99690.03;7388705;19;1640;-36
2024/01/04 10:59:01;;;;;;;;;;;;;;;19.11;60.46;99692.09;7389004;19;1362;-36
2024/01/04 11:01:30;;;;;;;;;;;;;;;18.97;60.97;99677.47;7386107;19;1541;-36
2024/01/04 11:03:59;;;;;;;;;;;;;;;18.86;61.41;99682.13;7387611;19;1446;-36
2024/01/04 11:06:28;;;;;;;;;;;;;;;18.85;61.77;99693.00;7385726;19;1389;-36
2024/01/04 11:09:01;;;;;;;;;;;;;;;19.10;61.28;99677.00;7391300;19;1221;-36
2024/01/04 11:11:29;;;;;;;;;;;;;;;19.40;60.32;99654.13;7392216;19;1842;-36
2024/01/04 11:13:58;;;;;;;;;;;;;;;19.23;60.87;99663.97;7393676;19;1043;-36
2024/01/04 11:16:32;;;;;;;;;;;;;;;18.99;61.52;99656.72;7393895;19;1055;-36
2024/01/04 11:19:06;;;;;;;;;;;;;;;18.82;61.73;99666.50;7393472;19;1905;-36
2024/01/04 11:21:43;;;;;;;;;;;;;;;18.74;62.03;99639.66;7390646;19;1795;-36
2024/01/04 11:24:21;;;;;;;;;;;;;;;19.19;61.01;99635.81;7392302;19;1497;-36
2024/01/04 11:26:53;;;;;;;;;;;;;;;19.37;60.45;99647.25;7391323;19;1929;-36
2024/01/04 11:29:23;;;;;;;;;;;;;;;19.20;61.16;99632.13;7392509;19;1580;-36
2024/01/04 11:31:51;;;;;;;;;;;;;;;18.94;61.67;99633.09;7389718;19;1998;-36
2024/01/04 11:34:21;;;;;;;;;;;;;;;18.80;62.15;99639.06;7391773;19;1330;-36
2024/01/04 11:36:54;;;;;;;;;;;;;;;18.72;62.12;99641.66;7391418;19;1361;-42
2024/01/04 11:39:30;;;;;;;;;;;;;;;18.89;61.84;99646.13;7391561;19;1751;-36
2024/01/04 11:41:58;;;;;;;;;;;;;;;19.33;60.59;99648.59;7391937;19;1742;-36
2024/01/04 11:44:36;;;;;;;;;;;;;;;19.18;60.94;99639.50;7377438;19;1556;-36
2024/01/04 11:47:05;;;;;;;;;;;;;;;18.86;61.89;99638.41;7390724;19;1496;-36
2024/01/04 11:49:35;;;;;;;;;;;;;;;18.68;62.51;99635.78;7389442;19;1145;-36
2024/01/04 11:52:04;;;;;;;;;;;;;;;18.57;62.38;99636.09;7384440;19;1870;-36
2024/01/04 11:54:36;;;;;;;;;;;;;;;18.90;61.95;99631.75;7385115;19;1563;-36
2024/01/04 11:57:18;;;;;;;;;;;;;;;19.15;60.94;99623.75;7371985;19;1630;-36
2024/01/04 11:59:46;;;;;;;;;;;;;;;19.19;60.75;99633.16;7385221;19;1557;-36
2024/01/04 12:02:19;;;;;;;;;;;;;;;18.95;61.39;99620.53;7385884;19;1490;-36
2024/01/04 12:04:47;;;;;;;;;;;;;;;18.74;61.94;99620.91;7390418;19;1241;-36
2024/01/04 12:07:16;;;;;;;;;;;;;;;18.56;62.60;99611.16;7390945;19;1544;-36
2024/01/04 12:09:57;;;;;;;;;;;;;;;18.73;62.04;99581.75;7377931;19;1265;-36
2024/01/04 12:12:25;;;;;;;;;;;;;;;18.97;61.19;99589.88;7384711;19;1844;-36
2024/01/04 12:14:53;;;;;;;;;;;;;;;18.83;61.48;99590.53;7387954;19;1323;-36
2024/01/04 12:17:22;;;;;;;;;;;;;;;18.60;62.19;99587.56;7384484;19;1405;-36
2024/01/04 12:19:51;;;;;;;;;;;;;;;18.45;62.65;99580.16;7389871;19;1493;-36
2024/01/04 12:22:20;;;;;;;;;;;;;;;18.77;61.83;99577.75;7388466;19;1262;-36
2024/01/04 12:24:51;;;;;;;;;;;;;;;19.01;61.26;99577.84;7389238;19;1340;-36
2024/01/04 12:27:21;;;;;;;;;;;;;;;18.86;61.36;99571.44;7389263;19;1516;-36
2024/01/04 12:29:49;;;;;;;;;;;;;;;18.61;61.92;99576.69;7384846;19;1343;-36
2024/01/04 12:32:17;;;;;;;;;;;;;;;18.43;62.37;99575.97;7387427;19;1891;-36
2024/01/04 12:34:47;;;;;;;;;;;;;;;18.63;62.03;99590.75;7387371;19;1208;-36
2024/01/04 12:37:18;;;;;;;;;;;;;;;18.95;61.31;99596.41;7389027;19;1188;-36
2024/01/04 12:39:46;;;;;;;;;;;;;;;18.84;61.29;99568.09;7387756;19;1320;-36
2024/01/04 12:42:17;;;;;;;;;;;;;;;18.61;61.99;99576.69;7392110;19;1611;-36
2024/01/04 12:44:45;;;;;;;;;;;;;;;18.48;62.24;99576.31;7381226;19;1194;-36
2024/01/04 12:47:14;;;;;;;;;;;;;;;18.67;62.09;99568.00;7398648;19;1121;-36
2024/01/04 12:49:44;;;;;;;;;;;;;;;18.77;61.72;99569.72;7329084;19;12547;-36
2024/01/04 12:52:13;;;;;;;;;;;;;;;18.71;62.08;99565.03;7390243;19;1875;-37
2024/01/04 12:54:43;;;;;;;;;;;;;;;18.55;62.43;99576.50;7393445;19;1378;-36
2024/01/04 12:57:11;;;;;;;;;;;;;;;18.41;62.73;99591.34;7394608;19;1340;-36
2024/01/04 12:59:43;;;;;;;;;;;;;;;18.63;62.11;99569.34;7396449;19;1340;-36
2024/01/04 13:02:11;;;;;;;;;;;;;;;18.84;61.71;99568.09;7396372;19;1450;-36
2024/01/04 13:04:39;;;;;;;;;;;;;;;18.69;61.94;99570.53;7394381;19;1474;-36
2024/01/04 13:07:08;;;;;;;;;;;;;;;18.54;62.52;99586.38;7393270;19;1447;-36